createdAt,value
2022-10-17T00:00:31.079Z,10.30
2022-10-17T00:02:57.653Z,7.47
2022-10-17T00:05:25.167Z,7.33
2022-10-17T00:07:52.551Z,8.50
2022-10-17T00:10:19.467Z,8.47
2022-10-17T00:12:46.069Z,12.97
2022-10-17T00:15:15.756Z,8.40
2022-10-17T00:17:42.315Z,8.57
2022-10-17T00:20:09.038Z,9.80
2022-10-17T00:25:03.139Z,7.47
2022-10-17T00:27:30.020Z,9.23
2022-10-17T00:29:56.840Z,6.27
2022-10-17T00:32:23.448Z,6.73
2022-10-17T00:34:50.035Z,6.67
2022-10-17T00:37:18.045Z,6.90
2022-10-17T00:39:44.592Z,7.47
2022-10-17T00:42:12.949Z,8.93
2022-10-17T00:44:42.684Z,8.70
2022-10-17T00:47:11.892Z,9.60
2022-10-17T00:49:38.738Z,6.63
2022-10-17T00:52:08.750Z,10.17
2022-10-17T00:54:37.419Z,9.27
2022-10-17T00:57:04.534Z,6.87
2022-10-17T00:59:33.175Z,8.13
2022-10-17T01:02:03.458Z,7.57
2022-10-17T01:04:30.220Z,5.70
2022-10-17T01:06:56.755Z,5.37
2022-10-17T01:09:23.548Z,8.17
2022-10-17T01:11:56.163Z,7.40
2022-10-17T01:14:29.323Z,6.57
2022-10-17T01:17:13.334Z,6.93
2022-10-17T01:19:56.113Z,5.47
2022-10-17T01:22:47.304Z,5.60
2022-10-17T01:25:28.854Z,5.13
2022-10-17T01:28:24.985Z,6.73
2022-10-17T01:31:24.673Z,5.10
2022-10-17T01:33:56.930Z,7.67
2022-10-17T01:36:37.367Z,6.33
2022-10-17T01:39:06.800Z,8.07
2022-10-17T01:41:39.551Z,5.60
2022-10-17T01:44:12.375Z,7.77
2022-10-17T01:46:40.333Z,6.47
2022-10-17T01:49:10.507Z,7.73
2022-10-17T01:51:51.209Z,6.53
2022-10-17T01:54:21.383Z,5.37
2022-10-17T01:56:49.765Z,8.33
2022-10-17T01:59:20.304Z,7.20
2022-10-17T02:01:51.302Z,5.10
2022-10-17T02:04:18.360Z,5.37
2022-10-17T02:06:44.935Z,7.80
2022-10-17T02:09:17.867Z,8.13
2022-10-17T02:11:48.213Z,7.13
2022-10-17T02:14:17.872Z,9.80
2022-10-17T02:17:03.201Z,6.73
2022-10-17T02:19:50.461Z,5.13
2022-10-17T02:22:16.995Z,5.43
2022-10-17T02:24:52.573Z,6.90
2022-10-17T02:27:25.451Z,7.63
2022-10-17T02:30:07.027Z,6.70
2022-10-17T02:32:33.595Z,6.20
2022-10-17T02:35:01.958Z,5.27
2022-10-17T02:37:29.630Z,5.97
2022-10-17T02:39:57.789Z,5.53
2022-10-17T02:42:24.956Z,7.27
2022-10-17T02:44:52.709Z,4.30
2022-10-17T02:47:23.293Z,8.40
2022-10-17T02:49:51.592Z,8.00
2022-10-17T02:52:37.144Z,4.73
2022-10-17T02:55:10.489Z,7.77
2022-10-17T02:57:52.441Z,6.13
2022-10-17T03:00:19.823Z,4.83
2022-10-17T03:02:48.181Z,8.27
2022-10-17T03:05:17.253Z,4.60
2022-10-17T03:07:44.372Z,6.03
2022-10-17T03:10:11.039Z,6.07
2022-10-17T03:12:37.876Z,7.17
2022-10-17T03:15:05.200Z,7.43
2022-10-17T03:17:32.466Z,6.10
2022-10-17T03:19:59.340Z,6.30
2022-10-17T03:22:26.019Z,6.27
2022-10-17T03:24:52.769Z,4.73
2022-10-17T03:27:19.708Z,4.93
2022-10-17T03:29:46.474Z,7.17
2022-10-17T03:32:14.896Z,5.00
2022-10-17T03:34:41.685Z,5.33
2022-10-17T03:37:09.297Z,4.87
2022-10-17T03:39:38.283Z,4.83
2022-10-17T03:42:04.880Z,6.00
2022-10-17T03:44:31.846Z,7.43
2022-10-17T03:46:59.317Z,4.27
2022-10-17T03:49:25.964Z,5.47
2022-10-17T03:51:53.200Z,4.23
2022-10-17T03:54:19.837Z,5.40
2022-10-17T03:56:46.968Z,5.47
2022-10-17T03:59:17.230Z,5.57
2022-10-17T04:01:51.177Z,5.23
2022-10-17T04:04:18.875Z,5.03
2022-10-17T04:06:45.486Z,5.43
2022-10-17T04:09:12.135Z,6.80
2022-10-17T04:11:46.435Z,5.60
2022-10-17T04:14:13.067Z,12.37
2022-10-17T04:16:40.108Z,5.87
2022-10-17T04:19:13.261Z,7.80
2022-10-17T04:21:44.363Z,6.77
2022-10-17T04:24:11.843Z,4.63
2022-10-17T04:26:57.059Z,6.67
2022-10-17T04:29:27.496Z,5.97
2022-10-17T04:32:03.198Z,5.63
2022-10-17T04:34:35.480Z,6.93
2022-10-17T04:37:02.915Z,4.47
2022-10-17T04:39:29.589Z,4.57
2022-10-17T04:41:58.027Z,4.70
2022-10-17T04:44:24.697Z,7.10
2022-10-17T04:46:52.561Z,5.60
2022-10-17T04:49:19.736Z,7.83
2022-10-17T04:51:49.135Z,4.90
2022-10-17T04:54:22.171Z,5.00
2022-10-17T04:56:54.732Z,5.90
2022-10-17T04:59:21.351Z,6.53
2022-10-17T05:01:53.991Z,5.17
2022-10-17T05:04:23.917Z,5.53
2022-10-17T05:06:52.596Z,4.93
2022-10-17T05:09:22.024Z,5.53
2022-10-17T05:11:48.978Z,4.57
2022-10-17T05:14:15.651Z,6.47
2022-10-17T05:16:42.491Z,5.97
2022-10-17T05:19:09.087Z,6.00
2022-10-17T05:21:42.267Z,4.93
2022-10-17T05:24:09.666Z,4.40
2022-10-17T05:26:37.764Z,6.10
2022-10-17T05:29:05.908Z,6.67
2022-10-17T05:31:36.655Z,6.30
2022-10-17T05:34:04.401Z,5.67
2022-10-17T05:36:33.202Z,5.43
2022-10-17T05:39:01.276Z,7.97
2022-10-17T05:41:28.611Z,5.50
2022-10-17T05:43:55.229Z,5.87
2022-10-17T05:46:34.301Z,7.20
2022-10-17T05:49:00.877Z,5.43
2022-10-17T05:51:27.715Z,6.97
2022-10-17T05:53:56.393Z,8.33
2022-10-17T05:56:26.586Z,4.67
2022-10-17T05:58:58.611Z,5.13
2022-10-17T06:01:46.039Z,6.13
2022-10-17T06:04:12.866Z,5.13
2022-10-17T06:06:40.553Z,4.47
2022-10-17T06:09:08.037Z,5.57
2022-10-17T06:11:38.131Z,7.73
2022-10-17T06:14:06.077Z,6.70
2022-10-17T06:16:32.966Z,7.50
2022-10-17T06:18:59.584Z,6.63
2022-10-17T06:21:27.616Z,8.20
2022-10-17T06:24:04.923Z,5.03
2022-10-17T06:26:35.058Z,6.73
2022-10-17T06:29:01.747Z,7.83
2022-10-17T06:31:33.764Z,4.93
2022-10-17T06:34:00.354Z,7.03
2022-10-17T06:36:27.061Z,5.37
2022-10-17T06:38:54.505Z,4.97
2022-10-17T06:41:28.214Z,8.53
2022-10-17T06:43:54.872Z,4.87
2022-10-17T06:46:39.549Z,8.10
2022-10-17T06:49:09.328Z,4.57
2022-10-17T06:51:51.057Z,3.93
2022-10-17T06:54:22.541Z,5.87
2022-10-17T06:57:09.408Z,6.00
2022-10-17T06:59:41.449Z,5.83
2022-10-17T07:02:17.016Z,8.67
2022-10-17T07:04:45.809Z,5.07
2022-10-17T07:07:12.450Z,5.97
2022-10-17T07:09:39.074Z,5.97
2022-10-17T07:12:08.347Z,7.77
2022-10-17T07:14:35.503Z,4.20
2022-10-17T07:17:02.629Z,5.17
2022-10-17T07:19:31.608Z,6.43
2022-10-17T07:21:58.200Z,4.70
2022-10-17T07:24:25.716Z,6.13
2022-10-17T07:26:58.325Z,3.73
2022-10-17T07:29:25.304Z,7.50
2022-10-17T07:32:08.595Z,4.03
2022-10-17T07:34:35.825Z,4.80
2022-10-17T07:37:03.108Z,5.03
2022-10-17T07:39:29.755Z,3.37
2022-10-17T07:41:56.427Z,4.10
2022-10-17T07:44:24.012Z,3.90
2022-10-17T07:46:52.503Z,3.63
2022-10-17T07:49:19.192Z,4.53
2022-10-17T07:54:34.082Z,3.97
2022-10-17T07:57:00.749Z,4.83
2022-10-17T07:59:27.355Z,6.10
2022-10-17T08:01:57.280Z,5.07
2022-10-17T08:04:23.964Z,4.60
2022-10-17T08:06:53.458Z,5.73
2022-10-17T08:09:23.047Z,4.10
2022-10-17T08:11:49.696Z,5.17
2022-10-17T08:14:16.899Z,4.30
2022-10-17T08:16:43.593Z,5.53
2022-10-17T08:19:11.619Z,6.13
2022-10-17T08:21:38.354Z,5.00
2022-10-17T08:24:05.149Z,3.30
2022-10-17T08:26:31.832Z,4.40
2022-10-17T08:28:58.790Z,7.30
2022-10-17T08:31:25.412Z,6.07
2022-10-17T08:33:52.189Z,5.00
2022-10-17T08:36:19.381Z,2.70
2022-10-17T08:38:51.633Z,3.70
2022-10-17T08:41:37.873Z,4.90
2022-10-17T08:44:13.611Z,6.33
2022-10-17T08:46:42.115Z,7.20
2022-10-17T08:49:15.245Z,5.30
2022-10-17T08:51:49.539Z,7.20
2022-10-17T08:54:22.340Z,4.70
2022-10-17T08:56:49.944Z,5.47
2022-10-17T08:59:27.045Z,6.20
2022-10-17T09:01:58.659Z,8.63
2022-10-17T09:04:37.955Z,4.77
2022-10-17T09:07:18.399Z,10.87
2022-10-17T09:09:44.966Z,8.73
2022-10-17T09:12:20.367Z,4.43
2022-10-17T09:14:49.779Z,7.60
2022-10-17T09:17:22.155Z,11.33
2022-10-17T09:20:10.303Z,7.53
2022-10-17T09:22:47.856Z,8.57
2022-10-17T09:25:17.747Z,4.17
2022-10-17T09:27:52.572Z,5.10
2022-10-17T09:30:44.301Z,5.63
2022-10-17T09:33:23.361Z,5.13
2022-10-17T09:36:02.005Z,3.63
2022-10-17T09:38:33.219Z,3.97
2022-10-17T09:41:00.757Z,4.30
2022-10-17T09:43:28.180Z,6.70
2022-10-17T09:46:04.186Z,4.30
2022-10-17T09:48:38.013Z,3.83
2022-10-17T09:51:21.842Z,5.07
2022-10-17T09:53:51.558Z,4.77
2022-10-17T09:56:18.988Z,3.77
2022-10-17T09:58:45.526Z,9.17
2022-10-17T10:01:31.457Z,4.67
2022-10-17T10:04:11.628Z,4.03
2022-10-17T10:06:38.755Z,4.17
2022-10-17T10:09:06.965Z,3.90
2022-10-17T10:11:54.017Z,6.47
2022-10-17T10:14:20.545Z,5.03
2022-10-17T10:16:47.432Z,5.43
2022-10-17T10:19:40.078Z,3.97
2022-10-17T10:22:16.044Z,8.50
2022-10-17T10:24:42.593Z,6.17
2022-10-17T10:27:16.855Z,4.70
2022-10-17T10:29:48.884Z,4.23
2022-10-17T10:35:08.978Z,3.60
2022-10-17T10:37:38.559Z,7.20
2022-10-17T10:40:07.319Z,5.97
2022-10-17T10:42:35.195Z,5.07
2022-10-17T10:45:29.428Z,3.03
2022-10-17T10:48:05.062Z,5.63
2022-10-17T10:50:34.683Z,6.67
2022-10-17T10:53:10.667Z,4.10
2022-10-17T10:55:41.907Z,5.23
2022-10-17T10:58:15.544Z,6.47
2022-10-17T11:00:42.775Z,4.00
2022-10-17T11:03:11.934Z,4.80
2022-10-17T11:05:39.455Z,6.03
2022-10-17T11:08:11.812Z,3.80
2022-10-17T11:10:44.695Z,6.27
2022-10-17T11:13:23.447Z,6.17
2022-10-17T11:16:13.282Z,5.40
2022-10-17T11:18:49.137Z,7.63
2022-10-17T11:21:34.606Z,13.00
2022-10-17T11:24:24.413Z,9.13
2022-10-17T11:26:56.743Z,11.47
2022-10-17T11:29:27.389Z,8.67
2022-10-17T11:31:56.941Z,8.00
2022-10-17T11:34:27.842Z,8.00
2022-10-17T11:36:56.833Z,8.20
2022-10-17T11:42:14.465Z,5.43
2022-10-17T11:44:41.449Z,4.57
2022-10-17T11:47:26.758Z,5.20
2022-10-17T11:53:11.680Z,3.87
2022-10-17T11:55:38.641Z,4.60
2022-10-17T11:58:05.237Z,4.43
2022-10-17T12:00:48.861Z,4.87
2022-10-17T12:03:27.920Z,5.23
2022-10-17T12:06:04.338Z,3.87
2022-10-17T12:08:37.822Z,4.13
2022-10-17T12:11:15.130Z,4.47
2022-10-17T12:13:49.238Z,5.47
2022-10-17T12:16:18.820Z,5.13
2022-10-17T12:18:46.067Z,4.17
2022-10-17T12:21:12.784Z,5.87
2022-10-17T12:23:40.074Z,5.60
2022-10-17T12:26:10.484Z,5.00
2022-10-17T12:28:37.032Z,7.07
2022-10-17T12:31:05.968Z,3.40
2022-10-17T12:33:51.922Z,5.50
2022-10-17T12:36:18.546Z,5.93
2022-10-17T12:38:49.924Z,6.53
2022-10-17T12:41:17.329Z,3.17
2022-10-17T12:46:36.607Z,5.57
2022-10-17T12:49:04.108Z,4.83
2022-10-17T12:51:50.596Z,4.27
2022-10-17T12:54:17.260Z,3.27
2022-10-17T12:56:47.931Z,5.33
2022-10-17T12:59:22.358Z,4.17
2022-10-17T13:01:51.543Z,5.20
2022-10-17T13:04:18.372Z,5.07
2022-10-17T13:06:49.404Z,6.73
2022-10-17T13:09:20.940Z,5.27
2022-10-17T13:11:49.223Z,4.30
2022-10-17T13:14:17.240Z,6.47
2022-10-17T13:16:54.245Z,5.13
2022-10-17T13:19:23.576Z,5.00
2022-10-17T13:21:56.286Z,5.50
2022-10-17T13:24:33.948Z,5.27
2022-10-17T13:27:01.040Z,8.17
2022-10-17T13:29:29.674Z,8.87
2022-10-17T13:32:01.510Z,4.87
2022-10-17T13:34:28.565Z,5.57
2022-10-17T13:37:00.734Z,5.23
2022-10-17T13:39:54.465Z,8.27
2022-10-17T13:42:24.214Z,4.03
2022-10-17T13:44:51.049Z,7.43
2022-10-17T13:47:24.498Z,4.50
2022-10-17T13:49:55.031Z,7.37
2022-10-17T13:52:24.522Z,6.77
2022-10-17T13:54:51.795Z,6.30
2022-10-17T13:57:18.318Z,4.67
2022-10-17T13:59:47.722Z,7.73
2022-10-17T14:02:19.280Z,6.67
2022-10-17T14:05:15.116Z,3.50
2022-10-17T14:08:05.471Z,5.30
2022-10-17T14:10:30.567Z,6.20
2022-10-17T14:12:57.972Z,5.63
2022-10-17T14:15:26.689Z,8.03
2022-10-17T14:17:54.843Z,5.60
2022-10-17T14:23:28.636Z,4.03
2022-10-17T14:26:12.401Z,3.17
2022-10-17T14:28:39.911Z,5.43
2022-10-17T14:31:18.384Z,5.57
2022-10-17T14:33:50.493Z,5.17
2022-10-17T14:36:18.182Z,7.23
2022-10-17T14:38:46.568Z,7.67
2022-10-17T14:41:41.274Z,8.27
2022-10-17T14:44:03.062Z,6.47
2022-10-17T14:46:29.736Z,6.03
2022-10-17T14:49:02.353Z,5.53
2022-10-17T14:51:35.938Z,6.10
2022-10-17T14:54:27.341Z,11.27
2022-10-17T14:56:54.963Z,6.10
2022-10-17T14:59:51.423Z,6.00
2022-10-17T15:02:10.902Z,9.13
2022-10-17T15:04:37.447Z,6.53
2022-10-17T15:07:04.035Z,5.73
2022-10-17T15:09:31.206Z,4.23
2022-10-17T15:12:02.596Z,7.73
2022-10-17T15:14:29.197Z,6.37
2022-10-17T15:16:55.793Z,6.90
2022-10-17T15:19:22.363Z,9.57
2022-10-17T15:21:48.913Z,9.50
2022-10-17T15:24:15.973Z,10.07
2022-10-17T15:26:42.850Z,7.83
2022-10-17T15:29:14.142Z,7.20
2022-10-17T15:31:41.613Z,12.70
2022-10-17T15:34:08.228Z,6.27
2022-10-17T15:36:38.967Z,13.20
2022-10-17T15:39:06.099Z,9.57
2022-10-17T15:41:32.998Z,9.47
2022-10-17T15:43:59.650Z,13.37
2022-10-17T15:46:27.576Z,12.87
2022-10-17T15:48:54.570Z,13.27
2022-10-17T15:51:21.501Z,11.23
2022-10-17T15:53:48.273Z,9.73
2022-10-17T15:56:21.097Z,10.27
2022-10-17T15:58:47.776Z,11.90
2022-10-17T16:01:19.159Z,9.90
2022-10-17T16:03:47.603Z,13.20
2022-10-17T16:06:14.371Z,11.03
2022-10-17T16:08:41.125Z,9.33
2022-10-17T16:11:10.184Z,11.47
2022-10-17T16:13:37.791Z,14.73
2022-10-17T16:16:04.479Z,9.53
2022-10-17T16:18:31.041Z,10.93
2022-10-17T16:20:58.260Z,12.13
2022-10-17T16:23:24.885Z,9.23
2022-10-17T16:25:51.841Z,8.83
2022-10-17T16:28:18.453Z,9.53
2022-10-17T16:30:46.361Z,6.77
2022-10-17T16:33:13.226Z,9.20
2022-10-17T16:35:39.880Z,12.30
2022-10-17T16:38:07.066Z,11.07
2022-10-17T16:40:34.163Z,7.97
2022-10-17T16:43:00.817Z,5.97
2022-10-17T16:45:27.488Z,8.87
2022-10-17T16:47:54.172Z,8.53
2022-10-17T16:50:20.803Z,9.30
2022-10-17T16:52:47.378Z,6.77
2022-10-17T16:55:14.098Z,10.37
2022-10-17T16:57:46.032Z,8.37
2022-10-17T17:00:12.932Z,8.33
2022-10-17T17:02:39.789Z,6.50
2022-10-17T17:05:06.872Z,6.57
2022-10-17T17:07:33.899Z,5.87
2022-10-17T17:10:00.480Z,8.40
2022-10-17T17:12:27.195Z,6.73
2022-10-17T17:14:53.771Z,6.30
2022-10-17T17:17:37.173Z,5.83
2022-10-17T17:20:07.221Z,6.33
2022-10-17T17:22:34.377Z,4.63
2022-10-17T17:25:00.926Z,3.60
2022-10-17T17:27:28.469Z,5.27
2022-10-17T17:29:55.279Z,4.73
2022-10-17T17:32:21.906Z,5.00
2022-10-17T17:34:48.456Z,6.77
2022-10-17T17:37:15.107Z,6.80
2022-10-17T17:39:42.480Z,3.77
2022-10-17T17:42:09.219Z,6.07
2022-10-17T17:44:35.795Z,8.63
2022-10-17T17:47:02.410Z,5.37
2022-10-17T17:49:29.017Z,4.40
2022-10-17T17:51:55.679Z,4.07
2022-10-17T17:54:22.278Z,6.67
2022-10-17T17:56:49.911Z,5.40
2022-10-17T17:59:16.506Z,3.30
2022-10-17T18:01:43.456Z,4.37
2022-10-17T18:04:11.132Z,4.17
2022-10-17T18:06:38.134Z,4.47
2022-10-17T18:09:05.166Z,4.47
2022-10-17T18:11:32.091Z,3.57
2022-10-17T18:14:04.115Z,2.20
2022-10-17T18:16:31.535Z,3.00
2022-10-17T18:19:02.632Z,3.33
2022-10-17T18:21:32.870Z,3.80
2022-10-17T18:24:00.269Z,6.27
2022-10-17T18:26:27.059Z,3.60
2022-10-17T18:28:53.650Z,6.53
2022-10-17T18:31:25.134Z,3.97
2022-10-17T18:33:53.085Z,3.43
2022-10-17T18:36:20.112Z,3.90
2022-10-17T18:38:46.918Z,3.63
2022-10-17T18:41:15.403Z,2.97
2022-10-17T18:43:42.912Z,2.93
2022-10-17T18:46:14.879Z,2.63
2022-10-17T18:48:42.743Z,3.63
2022-10-17T18:51:09.385Z,2.90
2022-10-17T18:53:39.243Z,4.20
2022-10-17T18:56:05.922Z,4.53
2022-10-17T18:58:32.514Z,3.60
2022-10-17T19:01:06.389Z,3.43
2022-10-17T19:03:34.036Z,4.43
2022-10-17T19:06:02.359Z,5.90
2022-10-17T19:08:29.373Z,4.53
2022-10-17T19:10:56.100Z,5.13
2022-10-17T19:13:22.672Z,5.97
2022-10-17T19:15:49.254Z,5.37
2022-10-17T19:18:15.830Z,5.47
2022-10-17T19:20:42.445Z,5.70
2022-10-17T19:23:09.023Z,3.67
2022-10-17T19:25:35.600Z,3.73
2022-10-17T19:28:02.246Z,5.57
2022-10-17T19:30:28.954Z,3.83
2022-10-17T19:32:55.510Z,3.00
2022-10-17T19:35:22.089Z,3.20
2022-10-17T19:37:48.782Z,3.43
2022-10-17T19:40:15.385Z,4.20
2022-10-17T19:42:42.023Z,6.53
2022-10-17T19:45:09.092Z,5.73
2022-10-17T19:47:35.705Z,6.73
2022-10-17T19:52:49.334Z,7.30
2022-10-17T19:55:16.005Z,5.10
2022-10-17T19:57:42.612Z,6.80
2022-10-17T20:00:09.377Z,6.57
2022-10-17T20:02:37.952Z,6.07
2022-10-17T20:05:21.640Z,6.37
2022-10-17T20:07:50.258Z,6.63
2022-10-17T20:10:18.500Z,7.67
2022-10-17T20:12:45.164Z,8.67
2022-10-17T20:15:12.013Z,6.67
2022-10-17T20:17:38.657Z,10.60
2022-10-17T20:20:08.691Z,14.73
2022-10-17T20:22:35.579Z,11.60
2022-10-17T20:25:02.337Z,14.07
2022-10-17T20:27:29.002Z,11.53
2022-10-17T20:29:55.596Z,13.13
2022-10-17T20:32:22.186Z,12.10
2022-10-17T20:34:48.908Z,12.50
2022-10-17T20:37:15.484Z,12.83
2022-10-17T20:39:42.631Z,11.73
2022-10-17T20:42:11.352Z,10.17
2022-10-17T20:44:38.024Z,9.67
2022-10-17T20:47:11.711Z,12.17
2022-10-17T20:49:42.689Z,14.23
2022-10-17T20:52:09.238Z,13.43
2022-10-17T20:54:35.828Z,13.53
2022-10-17T20:57:04.914Z,14.17
2022-10-17T20:59:31.859Z,12.67
2022-10-17T21:01:58.477Z,13.33
2022-10-17T21:04:45.316Z,15.53
2022-10-17T21:07:11.837Z,17.03
2022-10-17T21:09:38.519Z,14.27
2022-10-17T21:12:05.477Z,15.90
2022-10-17T21:14:33.400Z,16.00
2022-10-17T21:17:04.776Z,14.63
2022-10-17T21:19:31.968Z,14.10
2022-10-17T21:21:58.577Z,14.47
2022-10-17T21:24:25.170Z,14.30
2022-10-17T21:26:55.635Z,17.80
2022-10-17T21:29:22.892Z,17.13
2022-10-17T21:31:49.632Z,17.67
2022-10-17T21:34:18.394Z,13.30
2022-10-17T21:36:45.156Z,14.83
2022-10-17T21:39:12.313Z,15.07
2022-10-17T21:41:38.953Z,15.50
2022-10-17T21:44:07.212Z,14.20
2022-10-17T21:46:34.032Z,16.43
2022-10-17T21:49:01.029Z,13.97
2022-10-17T21:51:28.061Z,14.40
2022-10-17T21:53:55.640Z,12.60
2022-10-17T21:56:23.601Z,14.03
2022-10-17T21:58:50.753Z,16.73
2022-10-17T22:01:17.453Z,16.67
2022-10-17T22:03:46.809Z,16.20
2022-10-17T22:09:01.923Z,17.60
2022-10-17T22:11:30.751Z,17.00
2022-10-17T22:13:58.299Z,15.90
2022-10-17T22:16:24.864Z,14.60
2022-10-17T22:18:51.963Z,14.93
2022-10-17T22:21:19.789Z,15.07
2022-10-17T22:23:47.169Z,15.23
2022-10-17T22:26:14.376Z,15.17
2022-10-17T22:28:41.353Z,15.90
2022-10-17T22:31:08.739Z,14.87
2022-10-17T22:33:36.231Z,14.77
2022-10-17T22:36:03.173Z,12.50
2022-10-17T22:38:29.772Z,17.97
2022-10-17T22:40:56.499Z,17.17
2022-10-17T22:43:23.078Z,15.43
2022-10-17T22:45:53.538Z,16.10
2022-10-17T22:48:20.556Z,17.20
2022-10-17T22:50:51.061Z,18.47
2022-10-17T22:53:23.487Z,18.50
2022-10-17T22:55:50.933Z,16.17
2022-10-17T22:58:17.537Z,18.33
2022-10-17T23:00:44.103Z,17.57
2022-10-17T23:03:10.679Z,19.63
2022-10-17T23:05:37.243Z,19.13
2022-10-17T23:08:03.920Z,20.17
2022-10-17T23:10:30.511Z,18.57
2022-10-17T23:12:57.209Z,22.53
2022-10-17T23:15:23.844Z,20.50
2022-10-17T23:17:50.444Z,18.37
2022-10-17T23:20:17.202Z,20.37
2022-10-17T23:22:43.905Z,18.50
2022-10-17T23:25:10.578Z,19.00
2022-10-17T23:27:37.183Z,20.90
2022-10-17T23:30:04.188Z,19.13
2022-10-17T23:32:31.318Z,22.73
2022-10-17T23:34:58.104Z,20.27
2022-10-17T23:37:24.660Z,20.60
2022-10-17T23:39:51.224Z,16.73
2022-10-17T23:42:17.859Z,22.37
2022-10-17T23:44:44.536Z,18.57
2022-10-17T23:47:11.100Z,19.50
2022-10-17T23:49:37.695Z,19.13
2022-10-17T23:52:04.502Z,21.47
2022-10-17T23:54:31.518Z,18.00
2022-10-17T23:56:58.098Z,19.87
2022-10-17T23:59:24.801Z,18.00
